createdAt,value
2022-08-17T00:00:34.413Z,56.33
2022-08-17T00:03:10.670Z,55.69
2022-08-17T00:05:42.341Z,55.84
2022-08-17T00:08:11.437Z,55.88
2022-08-17T00:10:40.690Z,55.55
2022-08-17T00:13:17.374Z,55.91
2022-08-17T00:15:46.102Z,56.15
2022-08-17T00:19:01.941Z,56.00
2022-08-17T00:21:10.359Z,56.76
2022-08-17T00:23:39.854Z,57.10
2022-08-17T00:26:16.169Z,57.45
2022-08-17T00:29:06.311Z,56.98
2022-08-17T00:31:35.657Z,56.29
2022-08-17T00:34:05.439Z,56.10
2022-08-17T00:36:34.151Z,56.36
2022-08-17T00:39:02.967Z,56.23
2022-08-17T00:41:31.973Z,56.11
2022-08-17T00:44:03.248Z,56.50
2022-08-17T00:46:36.038Z,56.58
2022-08-17T00:49:05.988Z,56.63
2022-08-17T00:51:39.599Z,56.94
2022-08-17T00:54:12.729Z,57.27
2022-08-17T00:56:44.415Z,56.77
2022-08-17T00:59:15.320Z,57.68
2022-08-17T01:01:46.498Z,57.38
2022-08-17T01:04:15.169Z,57.50
2022-08-17T01:06:47.008Z,57.52
2022-08-17T01:09:16.671Z,57.90
2022-08-17T01:11:45.631Z,57.49
2022-08-17T01:14:14.671Z,57.97
2022-08-17T01:16:44.270Z,58.05
2022-08-17T01:19:32.721Z,57.95
2022-08-17T01:22:07.686Z,58.08
2022-08-17T01:24:38.751Z,58.75
2022-08-17T01:27:10.380Z,58.83
2022-08-17T01:29:42.525Z,58.53
2022-08-17T01:32:11.570Z,58.78
2022-08-17T01:34:43.000Z,58.54
2022-08-17T01:37:13.657Z,58.72
2022-08-17T01:39:46.881Z,58.98
2022-08-17T01:42:24.944Z,59.18
2022-08-17T01:44:57.061Z,59.05
2022-08-17T01:47:25.562Z,59.19
2022-08-17T01:49:58.717Z,59.14
2022-08-17T01:52:27.498Z,59.10
2022-08-17T01:54:57.605Z,59.52
2022-08-17T01:57:25.853Z,59.68
2022-08-17T01:59:54.149Z,60.15
2022-08-17T02:02:31.256Z,60.17
2022-08-17T02:05:00.512Z,60.36
2022-08-17T02:07:29.153Z,60.08
2022-08-17T02:09:58.795Z,60.48
2022-08-17T02:12:39.362Z,60.13
2022-08-17T02:15:10.137Z,60.33
2022-08-17T02:17:40.917Z,60.62
2022-08-17T02:20:11.958Z,60.48
2022-08-17T02:22:42.396Z,60.85
2022-08-17T02:25:16.285Z,61.02
2022-08-17T02:27:44.539Z,60.67
2022-08-17T02:31:01.279Z,61.29
2022-08-17T02:33:06.234Z,61.25
2022-08-17T02:35:34.508Z,61.57
2022-08-17T02:38:03.013Z,61.51
2022-08-17T02:40:36.169Z,61.83
2022-08-17T02:43:05.538Z,61.95
2022-08-17T02:45:33.783Z,62.47
2022-08-17T02:48:02.383Z,62.88
2022-08-17T02:50:30.697Z,63.17
2022-08-17T02:53:01.948Z,62.98
2022-08-17T02:55:36.269Z,62.54
2022-08-17T02:58:05.205Z,62.83
2022-08-17T03:00:36.532Z,62.84
2022-08-17T03:03:07.318Z,62.96
2022-08-17T03:05:38.174Z,63.47
2022-08-17T03:08:10.456Z,63.83
2022-08-17T03:10:43.587Z,63.94
2022-08-17T03:13:12.818Z,64.07
2022-08-17T03:15:43.910Z,63.79
2022-08-17T03:18:19.304Z,64.03
2022-08-17T03:20:56.035Z,64.81
2022-08-17T03:23:25.242Z,65.15
2022-08-17T03:25:56.477Z,64.86
2022-08-17T03:28:25.370Z,64.87
2022-08-17T03:30:54.343Z,64.85
2022-08-17T03:33:22.987Z,65.28
2022-08-17T03:35:51.446Z,65.56
2022-08-17T03:38:21.898Z,65.25
2022-08-17T03:40:56.464Z,65.28
2022-08-17T03:43:30.165Z,65.52
2022-08-17T03:46:27.570Z,65.74
2022-08-17T03:49:14.785Z,65.68
2022-08-17T03:52:00.659Z,65.54
2022-08-17T03:54:46.221Z,65.57
2022-08-17T03:57:14.572Z,65.96
2022-08-17T03:59:45.171Z,66.19
2022-08-17T04:02:19.432Z,67.25
2022-08-17T04:04:50.923Z,67.81
2022-08-17T04:07:20.083Z,68.06
2022-08-17T04:09:48.318Z,67.53
2022-08-17T04:12:17.574Z,67.28
2022-08-17T04:14:53.209Z,67.03
2022-08-17T04:17:24.424Z,67.54
2022-08-17T04:19:52.714Z,67.20
2022-08-17T04:22:30.276Z,67.63
2022-08-17T04:25:05.710Z,67.27
2022-08-17T04:27:34.023Z,66.60
2022-08-17T04:30:03.663Z,65.85
2022-08-17T04:33:10.874Z,65.15
2022-08-17T04:35:23.055Z,64.83
2022-08-17T04:37:51.865Z,63.97
2022-08-17T04:40:38.520Z,62.48
2022-08-17T04:43:09.717Z,62.05
2022-08-17T04:45:55.486Z,60.91
2022-08-17T04:48:29.627Z,60.15
2022-08-17T04:51:07.434Z,59.60
2022-08-17T04:53:35.843Z,59.55
2022-08-17T04:56:04.345Z,59.38
2022-08-17T04:58:32.583Z,58.65
2022-08-17T05:01:03.351Z,58.93
2022-08-17T05:03:32.073Z,58.26
2022-08-17T05:06:00.353Z,57.53
2022-08-17T05:08:28.732Z,57.55
2022-08-17T05:10:56.952Z,56.81
2022-08-17T05:13:26.654Z,56.33
2022-08-17T05:15:56.805Z,55.10
2022-08-17T05:18:28.353Z,54.54
2022-08-17T05:20:57.897Z,53.56
2022-08-17T05:23:41.785Z,52.15
2022-08-17T05:26:24.758Z,51.63
2022-08-17T05:29:02.460Z,51.50
2022-08-17T05:31:32.077Z,50.93
2022-08-17T05:34:01.906Z,51.35
2022-08-17T05:36:42.267Z,50.83
2022-08-17T05:39:17.050Z,50.00
2022-08-17T05:41:49.323Z,49.67
2022-08-17T05:44:18.654Z,50.06
2022-08-17T05:46:51.073Z,50.05
2022-08-17T05:49:28.275Z,49.77
2022-08-17T05:52:22.314Z,50.23
2022-08-17T05:55:03.994Z,51.13
2022-08-17T05:57:47.516Z,50.55
2022-08-17T06:00:30.133Z,49.20
2022-08-17T06:03:37.423Z,49.82
2022-08-17T06:06:25.341Z,49.13
2022-08-17T06:09:26.531Z,48.39
2022-08-17T06:12:03.625Z,47.87
2022-08-17T06:14:52.073Z,47.58
2022-08-17T06:17:25.606Z,47.52
2022-08-17T06:19:57.276Z,47.74
2022-08-17T06:22:34.571Z,47.29
2022-08-17T06:25:10.309Z,47.27
2022-08-17T06:27:42.732Z,47.48
2022-08-17T06:30:15.345Z,47.09
2022-08-17T06:32:47.746Z,46.78
2022-08-17T06:35:19.136Z,46.80
2022-08-17T06:38:05.382Z,47.18
2022-08-17T06:40:50.768Z,47.19
2022-08-17T06:43:36.626Z,46.31
2022-08-17T06:46:11.525Z,46.16
2022-08-17T06:48:47.969Z,46.82
2022-08-17T06:51:23.446Z,45.82
2022-08-17T06:54:01.905Z,46.01
2022-08-17T06:56:53.761Z,46.14
2022-08-17T06:59:34.825Z,46.21
2022-08-17T07:02:29.496Z,46.88
2022-08-17T07:05:19.800Z,44.92
2022-08-17T07:08:03.329Z,45.63
2022-08-17T07:10:39.588Z,45.24
2022-08-17T07:13:25.510Z,44.95
2022-08-17T07:16:07.012Z,44.21
2022-08-17T07:18:38.364Z,44.63
2022-08-17T07:21:22.904Z,45.12
2022-08-17T07:24:05.004Z,45.12
2022-08-17T07:26:34.766Z,45.61
2022-08-17T07:29:03.654Z,44.30
2022-08-17T07:31:33.808Z,44.07
2022-08-17T07:34:08.426Z,43.85
2022-08-17T07:36:36.880Z,45.00
2022-08-17T07:39:08.034Z,43.58
2022-08-17T07:41:57.679Z,42.84
2022-08-17T07:44:28.473Z,43.00
2022-08-17T07:47:14.885Z,43.67
2022-08-17T07:49:46.258Z,43.19
2022-08-17T07:52:47.825Z,41.94
2022-08-17T07:55:32.845Z,41.92
2022-08-17T07:58:03.710Z,41.71
2022-08-17T08:00:33.813Z,41.43
2022-08-17T08:03:16.154Z,40.90
2022-08-17T08:05:56.781Z,40.78
2022-08-17T08:08:31.242Z,40.37
2022-08-17T08:11:06.253Z,39.79
2022-08-17T08:13:40.666Z,39.08
2022-08-17T08:16:30.881Z,38.48
2022-08-17T08:19:01.123Z,38.11
2022-08-17T08:21:37.909Z,38.39
2022-08-17T08:24:31.191Z,38.40
2022-08-17T08:27:09.258Z,37.96
2022-08-17T08:29:50.177Z,36.44
2022-08-17T08:32:26.380Z,36.21
2022-08-17T08:35:03.714Z,35.79
2022-08-17T08:37:43.231Z,35.22
2022-08-17T08:40:26.745Z,34.99
2022-08-17T08:43:04.844Z,35.52
2022-08-17T08:45:44.547Z,35.36
2022-08-17T08:48:53.391Z,35.01
2022-08-17T08:51:22.990Z,32.54
2022-08-17T08:54:00.771Z,33.28
2022-08-17T08:56:38.585Z,34.16
2022-08-17T08:59:33.091Z,34.85
2022-08-17T09:02:11.377Z,34.43
2022-08-17T09:05:16.759Z,34.59
2022-08-17T09:07:56.237Z,33.74
2022-08-17T09:10:32.155Z,32.94
2022-08-17T09:13:10.181Z,31.68
2022-08-17T09:15:44.195Z,30.51
2022-08-17T09:18:59.867Z,30.75
2022-08-17T09:21:18.224Z,31.14
2022-08-17T09:23:59.925Z,30.26
2022-08-17T09:26:32.508Z,30.54
2022-08-17T09:29:07.504Z,31.18
2022-08-17T09:31:46.432Z,31.09
2022-08-17T09:34:28.188Z,30.42
2022-08-17T09:37:17.527Z,30.87
2022-08-17T09:39:53.003Z,30.49
2022-08-17T09:42:28.210Z,30.75
2022-08-17T09:45:08.133Z,30.21
2022-08-17T09:47:45.738Z,30.11
2022-08-17T09:51:01.599Z,30.30
2022-08-17T09:53:10.656Z,29.32
2022-08-17T09:55:52.385Z,29.71
2022-08-17T09:58:29.138Z,30.06
2022-08-17T10:01:04.216Z,29.19
2022-08-17T10:04:00.518Z,29.36
2022-08-17T10:06:34.048Z,28.79
2022-08-17T10:09:08.920Z,29.07
2022-08-17T10:12:00.735Z,29.18
2022-08-17T10:14:43.796Z,28.59
2022-08-17T10:17:22.972Z,28.69
2022-08-17T10:19:59.856Z,29.06
2022-08-17T10:22:54.961Z,29.16
2022-08-17T10:25:54.801Z,28.79
2022-08-17T10:28:30.274Z,29.23
2022-08-17T10:31:33.887Z,29.36
2022-08-17T10:34:06.628Z,29.03
2022-08-17T10:36:46.346Z,28.81
2022-08-17T10:39:29.189Z,28.38
2022-08-17T10:42:04.377Z,28.21
2022-08-17T10:44:48.943Z,28.15
2022-08-17T10:47:19.715Z,28.02
2022-08-17T10:49:54.089Z,29.34
2022-08-17T10:52:50.189Z,28.96
2022-08-17T10:55:21.524Z,27.87
2022-08-17T10:57:54.960Z,27.94
2022-08-17T11:00:58.413Z,27.92
2022-08-17T11:03:27.805Z,27.56
2022-08-17T11:06:12.853Z,26.88
2022-08-17T11:09:08.901Z,26.80
2022-08-17T11:11:51.119Z,27.10
2022-08-17T11:14:35.643Z,27.50
2022-08-17T11:17:17.108Z,26.78
2022-08-17T11:20:05.640Z,26.96
2022-08-17T11:23:11.033Z,26.91
2022-08-17T11:25:47.130Z,26.44
2022-08-17T11:28:21.070Z,26.16
2022-08-17T11:30:52.570Z,25.97
2022-08-17T11:33:58.309Z,26.00
2022-08-17T11:36:52.142Z,25.80
2022-08-17T11:39:34.927Z,25.50
2022-08-17T11:42:10.389Z,25.31
2022-08-17T11:44:53.083Z,24.34
2022-08-17T11:47:56.971Z,24.39
2022-08-17T11:51:02.603Z,24.66
2022-08-17T11:54:32.725Z,25.26
2022-08-17T11:56:56.861Z,25.15
2022-08-17T12:00:00.070Z,24.94
2022-08-17T12:02:44.398Z,24.38
2022-08-17T12:05:34.524Z,24.29
2022-08-17T12:08:20.232Z,24.65
2022-08-17T12:11:11.182Z,24.05
2022-08-17T12:13:48.852Z,23.83
2022-08-17T12:16:19.878Z,24.36
2022-08-17T12:18:58.706Z,24.44
2022-08-17T12:21:39.681Z,23.37
2022-08-17T12:24:20.429Z,23.16
2022-08-17T12:26:53.958Z,23.82
2022-08-17T12:29:35.630Z,23.84
2022-08-17T12:32:17.524Z,23.65
2022-08-17T12:34:50.255Z,24.02
2022-08-17T12:37:22.037Z,23.13
2022-08-17T12:39:58.718Z,23.31
2022-08-17T12:42:31.112Z,22.91
2022-08-17T12:45:00.241Z,23.46
2022-08-17T12:47:30.520Z,23.58
2022-08-17T12:50:29.695Z,23.22
2022-08-17T12:53:02.069Z,23.13
2022-08-17T12:55:37.070Z,23.79
2022-08-17T12:58:12.220Z,23.34
2022-08-17T13:00:48.987Z,23.24
2022-08-17T13:03:20.438Z,23.32
2022-08-17T13:06:00.883Z,22.81
2022-08-17T13:08:32.535Z,23.09
2022-08-17T13:11:03.606Z,23.55
2022-08-17T13:13:37.890Z,23.10
2022-08-17T13:16:10.399Z,23.01
2022-08-17T13:18:43.504Z,23.50
2022-08-17T13:21:27.464Z,23.14
2022-08-17T13:24:01.461Z,23.51
2022-08-17T13:26:34.481Z,23.52
2022-08-17T13:29:06.536Z,23.67
2022-08-17T13:31:43.444Z,24.21
2022-08-17T13:34:33.776Z,23.45
2022-08-17T13:37:29.146Z,22.82
2022-08-17T13:40:02.785Z,22.75
2022-08-17T13:42:52.819Z,22.80
2022-08-17T13:45:45.496Z,23.00
2022-08-17T13:48:26.965Z,23.48
2022-08-17T13:51:14.409Z,22.66
2022-08-17T13:53:56.142Z,22.72
2022-08-17T13:56:49.720Z,22.78
2022-08-17T13:59:53.727Z,23.00
2022-08-17T14:02:21.231Z,22.71
2022-08-17T14:04:50.411Z,23.72
2022-08-17T14:07:30.350Z,22.91
2022-08-17T14:10:03.679Z,23.21
2022-08-17T14:12:34.405Z,23.12
2022-08-17T14:15:03.044Z,23.16
2022-08-17T14:17:35.015Z,23.21
2022-08-17T14:20:12.335Z,23.34
2022-08-17T14:22:44.329Z,23.78
2022-08-17T14:25:17.346Z,23.36
2022-08-17T14:27:52.214Z,23.77
2022-08-17T14:30:24.649Z,23.66
2022-08-17T14:32:54.125Z,23.66
2022-08-17T14:35:24.571Z,23.47
2022-08-17T14:37:53.970Z,23.04
2022-08-17T14:40:25.547Z,23.31
2022-08-17T14:42:55.283Z,23.92
2022-08-17T14:45:31.622Z,24.76
2022-08-17T14:48:02.768Z,25.13
2022-08-17T14:50:31.817Z,25.14
2022-08-17T14:53:01.644Z,25.20
2022-08-17T14:55:32.644Z,25.37
2022-08-17T14:58:00.817Z,25.47
2022-08-17T15:00:29.039Z,25.95
2022-08-17T15:03:00.194Z,26.27
2022-08-17T15:05:38.275Z,25.13
2022-08-17T15:08:07.495Z,25.83
2022-08-17T15:10:37.716Z,25.79
2022-08-17T15:13:06.078Z,24.66
2022-08-17T15:15:34.786Z,24.82
2022-08-17T15:18:03.918Z,25.63
2022-08-17T15:20:33.444Z,25.40
2022-08-17T15:23:01.671Z,24.42
2022-08-17T15:25:33.045Z,24.47
2022-08-17T15:28:02.813Z,25.16
2022-08-17T15:30:32.211Z,25.16
2022-08-17T15:33:02.002Z,25.59
2022-08-17T15:35:34.384Z,25.27
2022-08-17T15:38:11.043Z,25.71
2022-08-17T15:40:44.003Z,25.39
2022-08-17T15:43:22.029Z,26.03
2022-08-17T15:46:02.811Z,25.96
2022-08-17T15:48:42.502Z,25.98
2022-08-17T15:51:12.949Z,26.32
2022-08-17T15:53:42.074Z,26.97
2022-08-17T15:56:11.449Z,26.88
2022-08-17T15:58:42.762Z,26.63
2022-08-17T16:01:17.046Z,26.90
2022-08-17T16:04:04.869Z,26.86
2022-08-17T16:06:35.058Z,27.01
2022-08-17T16:09:03.564Z,26.92
2022-08-17T16:11:31.959Z,27.25
2022-08-17T16:14:01.750Z,26.67
2022-08-17T16:16:31.389Z,26.83
2022-08-17T16:18:59.686Z,26.46
2022-08-17T16:21:31.119Z,26.63
2022-08-17T16:24:13.151Z,26.58
2022-08-17T16:26:42.382Z,27.49
2022-08-17T16:29:12.144Z,27.22
2022-08-17T16:31:41.495Z,27.97
2022-08-17T16:34:17.304Z,27.65
2022-08-17T16:36:55.472Z,28.25
2022-08-17T16:39:25.813Z,28.25
2022-08-17T16:41:54.166Z,28.32
2022-08-17T16:44:23.823Z,28.22
2022-08-17T16:46:52.017Z,28.26
2022-08-17T16:49:35.466Z,28.82
2022-08-17T16:52:10.152Z,28.79
2022-08-17T16:54:41.686Z,28.67
2022-08-17T16:57:09.769Z,28.47
2022-08-17T16:59:42.736Z,28.59
2022-08-17T17:02:15.963Z,28.76
2022-08-17T17:04:51.846Z,28.95
2022-08-17T17:07:39.489Z,29.11
2022-08-17T17:10:12.483Z,29.24
2022-08-17T17:13:03.014Z,29.48
2022-08-17T17:15:44.816Z,29.82
2022-08-17T17:18:15.479Z,29.98
2022-08-17T17:20:50.619Z,30.44
2022-08-17T17:23:32.469Z,30.37
2022-08-17T17:26:09.231Z,31.04
2022-08-17T17:28:44.556Z,31.58
2022-08-17T17:31:18.116Z,31.97
2022-08-17T17:33:50.974Z,32.74
2022-08-17T17:36:27.398Z,32.99
2022-08-17T17:39:00.454Z,32.97
2022-08-17T17:41:34.059Z,33.11
2022-08-17T17:44:06.538Z,33.38
2022-08-17T17:46:39.739Z,33.59
2022-08-17T17:49:10.583Z,33.69
2022-08-17T17:52:06.483Z,34.13
2022-08-17T17:54:59.012Z,33.93
2022-08-17T17:57:36.901Z,34.21
2022-08-17T18:00:13.162Z,34.32
2022-08-17T18:03:02.780Z,34.59
2022-08-17T18:05:44.562Z,34.47
2022-08-17T18:08:32.155Z,34.69
2022-08-17T18:11:11.477Z,34.80
2022-08-17T18:13:56.431Z,35.12
2022-08-17T18:16:25.363Z,34.94
2022-08-17T18:18:57.773Z,35.18
2022-08-17T18:21:30.412Z,35.19
2022-08-17T18:24:00.853Z,35.46
2022-08-17T18:26:44.649Z,35.45
2022-08-17T18:29:26.526Z,35.59
2022-08-17T18:32:26.389Z,35.53
2022-08-17T18:34:58.757Z,35.77
2022-08-17T18:37:45.552Z,36.10
2022-08-17T18:40:34.836Z,36.16
2022-08-17T18:43:10.417Z,36.44
2022-08-17T18:45:46.004Z,36.51
2022-08-17T18:48:33.860Z,37.08
2022-08-17T18:51:33.211Z,37.15
2022-08-17T18:54:16.883Z,37.63
2022-08-17T18:56:50.163Z,37.69
2022-08-17T18:59:28.347Z,37.67
2022-08-17T19:02:27.326Z,37.70
2022-08-17T19:05:09.365Z,37.97
2022-08-17T19:07:41.579Z,38.31
2022-08-17T19:10:20.944Z,38.54
2022-08-17T19:12:53.215Z,38.63
2022-08-17T19:15:28.983Z,38.73
2022-08-17T19:18:02.031Z,38.87
2022-08-17T19:20:33.908Z,39.25
2022-08-17T19:23:11.198Z,39.71
2022-08-17T19:25:45.872Z,39.58
2022-08-17T19:28:22.400Z,39.96
2022-08-17T19:30:57.133Z,39.85
2022-08-17T19:33:26.169Z,40.39
2022-08-17T19:36:06.518Z,40.36
2022-08-17T19:38:51.750Z,40.35
2022-08-17T19:41:26.084Z,40.64
2022-08-17T19:44:13.391Z,40.61
2022-08-17T19:46:50.705Z,40.69
2022-08-17T19:49:41.708Z,41.10
2022-08-17T19:52:22.200Z,40.60
2022-08-17T19:54:58.980Z,40.89
2022-08-17T19:57:38.270Z,40.80
2022-08-17T20:00:11.960Z,41.00
2022-08-17T20:02:55.844Z,40.90
2022-08-17T20:05:28.787Z,40.96
2022-08-17T20:08:03.585Z,41.44
2022-08-17T20:10:40.651Z,41.52
2022-08-17T20:13:12.317Z,41.70
2022-08-17T20:15:43.757Z,41.45
2022-08-17T20:18:20.138Z,41.73
2022-08-17T20:21:00.724Z,42.29
2022-08-17T20:23:41.592Z,42.39
2022-08-17T20:26:19.560Z,42.57
2022-08-17T20:29:11.020Z,43.15
2022-08-17T20:31:49.936Z,43.48
2022-08-17T20:34:37.730Z,43.85
2022-08-17T20:37:09.454Z,43.76
2022-08-17T20:39:40.981Z,44.40
2022-08-17T20:42:29.878Z,44.05
2022-08-17T20:45:03.286Z,44.48
2022-08-17T20:47:35.255Z,45.19
2022-08-17T20:50:06.978Z,44.95
2022-08-17T20:52:53.661Z,45.42
2022-08-17T20:55:56.383Z,45.55
2022-08-17T20:59:00.815Z,45.59
2022-08-17T21:01:41.162Z,45.65
2022-08-17T21:04:33.588Z,46.08
2022-08-17T21:07:29.401Z,46.39
2022-08-17T21:10:15.938Z,46.67
2022-08-17T21:12:48.019Z,46.74
2022-08-17T21:15:35.367Z,46.87
2022-08-17T21:18:12.865Z,47.74
2022-08-17T21:21:07.721Z,47.58
2022-08-17T21:23:59.820Z,47.56
2022-08-17T21:26:34.178Z,47.29
2022-08-17T21:29:31.376Z,47.65
2022-08-17T21:32:24.516Z,47.50
2022-08-17T21:35:29.003Z,47.61
2022-08-17T21:38:05.233Z,47.64
2022-08-17T21:40:34.860Z,47.50
2022-08-17T21:43:23.697Z,47.82
2022-08-17T21:46:02.196Z,47.56
2022-08-17T21:48:42.254Z,47.93
2022-08-17T21:51:14.611Z,48.03
2022-08-17T21:53:47.651Z,47.63
2022-08-17T21:56:24.445Z,47.67
2022-08-17T21:58:57.997Z,48.63
2022-08-17T22:01:29.509Z,48.57
2022-08-17T22:04:05.960Z,48.74
2022-08-17T22:06:39.411Z,49.23
2022-08-17T22:09:14.965Z,49.21
2022-08-17T22:11:53.422Z,48.88
2022-08-17T22:14:23.538Z,48.95
2022-08-17T22:17:08.265Z,49.00
2022-08-17T22:19:39.008Z,49.26
2022-08-17T22:22:09.209Z,49.01
2022-08-17T22:24:37.302Z,48.94
2022-08-17T22:27:10.427Z,49.31
2022-08-17T22:29:57.489Z,49.47
2022-08-17T22:32:39.867Z,49.32
2022-08-17T22:35:38.098Z,49.70
2022-08-17T22:38:33.521Z,50.23
2022-08-17T22:41:34.744Z,50.18
2022-08-17T22:44:14.177Z,50.18
2022-08-17T22:46:51.504Z,50.30
2022-08-17T22:49:26.734Z,51.03
2022-08-17T22:52:17.568Z,51.30
2022-08-17T22:55:19.362Z,51.90
2022-08-17T22:58:06.191Z,51.53
2022-08-17T23:00:42.459Z,51.59
2022-08-17T23:03:15.328Z,51.06
2022-08-17T23:05:46.479Z,50.98
2022-08-17T23:08:21.353Z,50.74
2022-08-17T23:10:50.430Z,50.48
2022-08-17T23:13:18.764Z,51.22
2022-08-17T23:15:48.251Z,50.66
2022-08-17T23:18:17.655Z,50.83
2022-08-17T23:20:46.532Z,50.57
2022-08-17T23:23:20.628Z,50.33
2022-08-17T23:25:51.317Z,50.81
2022-08-17T23:28:19.664Z,50.99
2022-08-17T23:30:49.349Z,50.94
2022-08-17T23:33:21.386Z,51.05
2022-08-17T23:35:49.833Z,51.15
2022-08-17T23:38:19.437Z,51.36
2022-08-17T23:40:47.576Z,52.02
2022-08-17T23:43:24.825Z,52.19
2022-08-17T23:45:55.312Z,52.24
2022-08-17T23:48:36.159Z,52.89
2022-08-17T23:51:09.366Z,52.54
2022-08-17T23:53:44.200Z,53.24
2022-08-17T23:56:12.409Z,53.17
2022-08-17T23:58:43.241Z,53.45
